ADDS METAR Data INFO
IDs: Format: Raw Decoded Include TAF

Data at: 0436 UTC 22 Sep 2017

KCRS 220353Z AUTO 15009KT 10SM CLR 25/22 A2996 RMK AO2 SLP140 T02500222
KCRS 220253Z AUTO 15010KT 10SM CLR 26/22 A2996 RMK AO2 SLP139 T02560222 53018
KCRS 220153Z AUTO 14010KT 10SM CLR 26/22 A2993 RMK AO2 SLP130 T02610217
KCRS 220053Z AUTO 16009KT 10SM CLR 27/22 A2991 RMK AO2 SLP124 T02670222
KCRS 212353Z AUTO 15014KT 10SM CLR 28/22 A2990 RMK AO2 PK WND 15033/2257 SLP121 T02830217 10356 20278 53004
KCRS 212314Z AUTO 16015G23KT 10SM FEW039 SCT050 SCT070 29/22 A2990 RMK AO2 PK WND 15033/2257 LTG DSNT NE T02890222
KCRS 212253Z AUTO 14022G35KT 10SM VCTS SCT050 34/21 A2990 RMK AO2 PK WND 14035/2253 LTG DSNT E SLP119 T03390211
KCRS 212153Z AUTO 17011KT 10SM FEW055 35/21 A2988 RMK AO2 SLP112 T03500211
KCRS 212053Z AUTO 16009G19KT 10SM SCT060 35/21 A2989 RMK AO2 SLP116 T03500206 58024
KCRS 211953Z AUTO 12007G17KT 10SM FEW060 34/20 A2992 RMK AO2 SLP125 T03440200
KCRS 211853Z AUTO 14008G17KT 10SM FEW047 33/21 A2994 RMK AO2 SLP133 T03330211
KCRS 211753Z AUTO 17008G17KT 10SM CLR 33/22 A2997 RMK AO2 SLP141 T03280217 10328 20244 58009
KCRS 211653Z AUTO 17011KT 10SM FEW033 SCT042 31/22 A2999 RMK AO2 SLP149 T03060222
KCRS 211553Z AUTO 16013KT 10SM SCT026 31/23 A3000 RMK AO2 SLP151 T03060228
KCRS 211544Z AUTO 16010KT 10SM SCT024 SCT031 29/23 A3000 RMK AO2 T02940228
KCRS 211453Z AUTO 17010KT 10SM BKN020 28/23 A2999 RMK AO2 SLP151 T02830233 51010
KCRS 211445Z AUTO 17009KT 10SM BKN018 BKN023 28/24 A2999 RMK AO2 T02830239
KCRS 211353Z AUTO 15009KT 10SM CLR 27/24 A2999 RMK AO2 SLP148 T02670239
KCRS 211253Z AUTO 14008KT 10SM CLR 25/24 A2998 RMK AO2 SLP144 T02500239
KCRS 211153Z AUTO 16006KT 9SM CLR 24/23 A2996 RMK AO2 SLP140 T02440233 10261 20244 53011
KCRS 211103Z AUTO 17007KT 10SM FEW025 25/23 A2995 RMK AO2 T02500233
KCRS 211053Z AUTO 17008KT 10SM BKN025 25/23 A2995 RMK AO2 SLP135 T02500233
KCRS 210953Z AUTO 19007KT 10SM OVC016 26/24 A2994 RMK AO2 SLP133 T02560239
KCRS 210902Z AUTO 18009KT 10SM BKN012 25/24 A2993 RMK AO2 T02500239
KCRS 210853Z AUTO 18008KT 10SM SCT012 25/24 A2993 RMK AO2 SLP129 T02500239 58001
KCRS 210753Z AUTO 16009KT 10SM CLR 26/24 A2993 RMK AO2 SLP129 T02560239
KCRS 210653Z AUTO 16010KT 10SM CLR 26/24 A2994 RMK AO2 SLP132 T02610239
KCRS 210553Z AUTO 16009KT 10SM CLR 26/24 A2994 RMK AO2 SLP131 T02610239 10322 20261 403500239 50008
KCRS 210453Z AUTO 16008KT 10SM CLR 27/23 A2994 RMK AO2 SLP132 T02720233
KCRS 210353Z AUTO 15013KT 10SM CLR 28/23 A2992 RMK AO2 SLP125 T02780233
KCRS 210253Z AUTO 14011KT 10SM CLR 28/22 A2991 RMK AO2 SLP122 T02830222 53019
KCRS 210153Z AUTO 14007KT 10SM CLR 29/22 A2989 RMK AO2 SLP115 T02890217
KCRS 210053Z AUTO 15008KT 10SM CLR 31/21 A2987 RMK AO2 SLP108 T03060211
KCRS 202353Z AUTO 16012KT 10SM CLR 32/22 A2985 RMK AO2 SLP103 T03220217 10350 20322 55001
KCRS 202253Z AUTO 16013KT 10SM CLR 34/22 A2985 RMK AO2 SLP102 T03390217
KCRS 202153Z AUTO 16016KT 10SM CLR 34/22 A2985 RMK AO2 SLP101 T03440217
KCRS 202053Z AUTO 15011G20KT 10SM CLR 34/22 A2986 RMK AO2 SLP104 T03440222 56021
KCRS 201953Z AUTO 16017G21KT 10SM BKN048 34/22 A2987 RMK AO2 SLP110 T03390222
KCRS 201853Z AUTO 10SM BKN041 34/22 A2990 RMK AO2 SLP118 T03390222
KCRS 201753Z AUTO 20014G20KT 10SM SCT036 33/22 A2992 RMK AO2 SLP125 T03280222 10333 20244 58009
KCRS 201653Z AUTO 20014G23KT 10SM BKN031 31/23 A2994 RMK AO2 SLP132 T03060228